Hayward Executive, CA

10:34 PM PDT on September 20, 2014 (GMT -0700)
San Francisco International | Change Station
CLOSE
Current Station
Airport
Location: San Francisco,
Elevation: 16 ft
Nearby Weather Stations

Elev 16 ft 37.62 °N, 122.37 °W | Updated 38 minutes ago

Overcast
Overcast
66 °F
Feels Like 66 °F
N
9
Wind Variable Wind from West

Today
High -- | Low -- °F
--% Chance of Precip.
Yesterday
High -- | Low -- °F
Precip. -- in
6:54 AM 7:08 PM
Waning Crescent, 8% visible
Pressure 29.92 in
Visibility 10.0 miles
Clouds Few 1200 ft
Scattered Clouds 18000 ft
Dew Point 59 °F
Humidity 78%
Rainfall 0.00 in
Snow Depth 1 in , 1 in , 1 in
UV 0 out of 12
Pollen 4.00 out of 12
Ozone Good
PM2.5 Good
Flu Activity Not available.
METAR KSFO 210456Z 27008KT 10SM FEW012 SCT180 19/15 A2992 RMK AO2 SLP132 T01890150 $

More Conditions Fewer Conditions

Pressure 29.92 in
Visibility 10.0 miles
Clouds Few 1200 ft
Scattered Clouds 18000 ft
Dew Point 59 °F
Humidity 78%
Rainfall 0.00 in
Snow Depth 1 in , 1 in , 1 in
UV 0 out of 12
Pollen 4.00 out of 12
Ozone Good
PM2.5 Good
Flu Activity Not available.
METAR KSFO 210456Z 27008KT 10SM FEW012 SCT180 19/15 A2992 RMK AO2 SLP132 T01890150 $

More Conditions Fewer Conditions

10-Day Weather Forecast

Almanac

Astronomy

Sep. 20, 2014 Rise Set
Actual Time 6:54 AM PDT 7:08 PM PDT
Civil Twilight 6:28 AM PDT 7:34 PM PDT
Nautical Twilight 5:57 AM PDT 8:05 PM PDT
Astronomical Twilight 5:26 AM PDT 8:36 PM PDT
Moon 3:41 AM PDT (9/20) 5:12 PM PDT (9/20)
Length of Visible Light 13h 06m
Length of Day
12h 13m
Tomorrow will be 2m 24s shorter.
Waning Crescent, 8% of the Moon is Illuminated
Sep 21
Waning Crescent
Sep 24
New
Oct 1
First Quarter
Oct 8
Full
Oct 15
Last Quarter

Yesterday's Extremes

State Highs State Lows

Community

WunderPhotos

Upload Photos

1,755,090 photos uploaded!

Nearby

Air Quality

  Air Quality AQ Index Pollutant
Yesterday Good
PM2.5
Yesterday Good
OZONE
Current Good
OZONE
Current Good
PM2.5
Saturday Moderate
PM2.5
Sunday Moderate
PM2.5
Monday Good
PM2.5
Tuesday Good
PM2.5
Wednesday Good
OZONE
Thursday Good
OZONE

Snow Depth

Station Depth Elevation
Adin Mountain 1 in 6200 ft
Summit Meadow 1 in 9122 ft
Spratt Creek 1 in 6200 ft
Monitor Pass 1 in 8350 ft
Leavitt Meadows 1 in 7200 ft

Earthquake Activity

City Distance Mag. Time & Date
Cloverdale, California 91 miles 2.5 9:15 PM PDT
2014-09-20
Livermore, California 21 miles 2.6 3:37 AM PDT
2014-09-19
The Geysers, California 82 miles 2.5 11:29 PM PDT
2014-09-17
Minimum magnitude displayed is 2.5.

Coastal Water Temperatures

Place Temperature
No Stations Reporting

Nearby Weather Stations